Time;durP1;ratioP1;P1;durP2;ratioP2;P2;SDS_P1;SDS_P2;PMS_P1;PMS_P2;Temp;Humidity;BMP_temperature;BMP_pressure;BME280_temperature;BME280_humidity;BME280_pressure;Samples;Min_cycle;Max_cycle;Signal;HPM_P1;HPM_P2
2022/12/27 00:00:26;;;;;;;;;;;25.20;99.90;;;;;;5014076;28;19916;-65
2022/12/27 00:02:52;;;;;;;;;;;25.20;99.90;;;;;;5014146;28;19919;-69
2022/12/27 00:05:19;;;;;;;;;;;25.20;99.90;;;;;;5013799;28;20438;-67
2022/12/27 00:07:46;;;;;;;;;;;25.30;99.90;;;;;;5013620;28;19951;-66
2022/12/27 00:10:12;;;;;;;;;;;25.20;99.90;;;;;;5013381;28;19910;-66
2022/12/27 00:12:39;;;;;;;;;;;25.30;99.90;;;;;;5013787;28;19948;-70
2022/12/27 00:15:06;;;;;;;;;;;25.30;99.90;;;;;;5013622;28;19913;-71
2022/12/27 00:17:33;;;;;;;;;;;25.40;99.90;;;;;;5013592;28;20000;-70
2022/12/27 00:19:59;;;;;;;;;;;25.40;99.90;;;;;;5013456;28;19921;-66
2022/12/27 00:22:26;;;;;;;;;;;25.40;99.90;;;;;;5013414;28;19909;-65
2022/12/27 00:24:53;;;;;;;;;;;25.60;99.90;;;;;;5013331;28;19909;-70
2022/12/27 00:27:19;;;;;;;;;;;25.70;99.90;;;;;;5012521;28;19918;-73
2022/12/27 00:29:46;;;;;;;;;;;25.70;99.90;;;;;;4996087;28;19977;-65
2022/12/27 00:32:13;;;;;;;;;;;25.70;99.90;;;;;;5013367;28;19910;-68
2022/12/27 00:34:39;;;;;;;;;;;25.90;99.90;;;;;;5013701;28;19914;-65
2022/12/27 00:37:06;;;;;;;;;;;26.10;99.90;;;;;;5013510;28;19925;-68
2022/12/27 00:39:33;;;;;;;;;;;26.30;99.90;;;;;;5013103;28;19910;-67
2022/12/27 00:42:03;;;;;;;;;;;26.30;99.90;;;;;;5013223;28;19913;-65
2022/12/27 00:44:30;;;;;;;;;;;26.40;99.90;;;;;;5013395;28;19956;-65
2022/12/27 00:46:56;;;;;;;;;;;26.30;99.90;;;;;;5013011;28;19948;-84
2022/12/27 00:49:23;;;;;;;;;;;26.10;99.90;;;;;;5013264;28;19992;-65
2022/12/27 00:51:49;;;;;;;;;;;26.00;99.90;;;;;;4995414;28;19960;-66
2022/12/27 00:54:16;;;;;;;;;;;26.10;99.90;;;;;;5013037;28;19928;-83
2022/12/27 00:56:43;;;;;;;;;;;26.30;99.90;;;;;;5013611;28;20012;-72
2022/12/27 00:59:10;;;;;;;;;;;26.40;99.90;;;;;;5013614;28;19948;-84
2022/12/27 01:01:37;;;;;;;;;;;26.80;99.90;;;;;;5013101;28;20000;-71
2022/12/27 01:04:05;;;;;;;;;;;27.30;99.90;;;;;;5013265;28;20352;-73
2022/12/27 01:06:33;;;;;;;;;;;27.70;99.90;;;;;;4995720;28;19917;-74
2022/12/27 01:09:00;;;;;;;;;;;28.10;99.90;;;;;;5013438;28;19913;-78
2022/12/27 01:11:27;;;;;;;;;;;28.20;99.90;;;;;;5013867;28;19949;-80
2022/12/27 01:13:55;;;;;;;;;;;28.50;99.90;;;;;;5013531;28;19914;-73
2022/12/27 01:16:22;;;;;;;;;;;28.90;99.90;;;;;;5013388;28;19910;-81
2022/12/27 01:18:49;;;;;;;;;;;29.40;99.90;;;;;;5013665;28;19914;-77
2022/12/27 01:21:18;;;;;;;;;;;29.30;99.90;;;;;;5013545;28;20379;-71
2022/12/27 01:23:45;;;;;;;;;;;29.40;99.90;;;;;;5013155;28;19917;-74
2022/12/27 01:26:13;;;;;;;;;;;29.30;99.90;;;;;;5013456;28;20016;-73
2022/12/27 01:28:39;;;;;;;;;;;29.50;99.90;;;;;;5013543;28;19920;-66
2022/12/27 01:31:07;;;;;;;;;;;29.40;99.90;;;;;;5013407;28;19956;-66
2022/12/27 01:33:34;;;;;;;;;;;29.60;99.90;;;;;;5012906;28;19909;-67
2022/12/27 01:36:07;;;;;;;;;;;29.80;99.90;;;;;;5012877;28;19909;-70
2022/12/27 01:38:34;;;;;;;;;;;29.80;99.90;;;;;;5016643;28;19913;-65
2022/12/27 01:42:50;;;;;;;;;;;29.70;99.90;;;;;;5017083;28;19917;-65
2022/12/27 01:43:47;;;;;;;;;;;29.70;99.90;;;;;;5017273;28;19913;-66
2022/12/27 01:46:13;;;;;;;;;;;29.70;99.90;;;;;;5016548;28;20311;-66
2022/12/27 01:48:40;;;;;;;;;;;29.90;99.90;;;;;;5016446;28;19996;-66
2022/12/27 01:51:07;;;;;;;;;;;30.00;99.90;;;;;;5016404;28;19914;-80
2022/12/27 01:53:36;;;;;;;;;;;29.90;99.90;;;;;;5016441;28;19921;-85
2022/12/27 01:56:05;;;;;;;;;;;29.40;99.90;;;;;;5016442;28;19910;-84
2022/12/27 01:58:37;;;;;;;;;;;28.80;99.90;;;;;;5016507;28;19914;-80
2022/12/27 02:01:05;;;;;;;;;;;28.10;99.90;;;;;;5016152;28;20352;-80
2022/12/27 02:03:38;;;;;;;;;;;27.70;99.90;;;;;;5016019;28;20282;-68
2022/12/27 02:06:06;;;;;;;;;;;27.50;99.90;;;;;;5016335;28;19929;-72
2022/12/27 02:08:33;;;;;;;;;;;27.20;99.90;;;;;;5016213;28;19910;-69
2022/12/27 02:11:00;;;;;;;;;;;26.90;99.90;;;;;;5015995;28;20287;-74
2022/12/27 02:13:28;;;;;;;;;;;27.00;99.90;;;;;;5015544;28;19909;-68
2022/12/27 02:15:54;;;;;;;;;;;27.00;99.90;;;;;;5015935;28;19955;-86
2022/12/27 02:18:21;;;;;;;;;;;27.00;99.90;;;;;;5015717;28;20423;-79
2022/12/27 02:20:54;;;;;;;;;;;27.00;99.90;;;;;;4998288;28;19910;-80
2022/12/27 02:26:26;;;;;;;;;;;27.00;99.90;;;;;;5015915;28;19964;-73
2022/12/27 02:29:05;;;;;;;;;;;27.00;99.90;;;;;;5015522;28;20360;-81
2022/12/27 02:31:40;;;;;;;;;;;27.00;99.90;;;;;;5015511;28;20372;-77
2022/12/27 02:34:24;;;;;;;;;;;26.90;99.90;;;;;;5015524;28;19929;-75
2022/12/27 02:36:52;;;;;;;;;;;26.80;99.90;;;;;;5015619;28;20420;-71
2022/12/27 02:39:20;;;;;;;;;;;26.80;99.90;;;;;;5015444;28;19952;-66
2022/12/27 02:53:08;;;;;;;;;;;26.70;99.90;;;;;;5015825;28;20467;-77
2022/12/27 02:55:41;;;;;;;;;;;26.60;99.90;;;;;;5015170;28;19918;-70
2022/12/27 02:58:14;;;;;;;;;;;26.60;99.90;;;;;;5015093;28;19955;-75
2022/12/27 03:04:05;;;;;;;;;;;26.60;99.90;;;;;;4955217;28;19916;-77
2022/12/27 03:06:58;;;;;;;;;;;26.60;99.90;;;;;;5014962;28;19964;-74
2022/12/27 03:18:27;;;;;;;;;;;26.60;99.90;;;;;;5015107;28;19920;-73
2022/12/27 03:26:28;;;;;;;;;;;26.60;99.90;;;;;;5014632;28;20020;-71
2022/12/27 03:34:40;;;;;;;;;;;26.50;99.90;;;;;;4960996;28;19910;-76
2022/12/27 03:40:13;;;;;;;;;;;26.50;99.90;;;;;;5014819;28;19918;-78
2022/12/27 03:48:19;;;;;;;;;;;26.40;99.90;;;;;;5014232;28;20355;-82
2022/12/27 03:50:49;;;;;;;;;;;26.40;99.90;;;;;;5014725;28;19968;-71
2022/12/27 03:53:39;;;;;;;;;;;26.40;99.90;;;;;;5013641;28;20340;-80
2022/12/27 03:56:06;;;;;;;;;;;26.40;99.90;;;;;;5003537;28;19924;-78
2022/12/27 03:58:34;;;;;;;;;;;26.30;99.90;;;;;;5013873;28;20004;-75
2022/12/27 04:01:00;;;;;;;;;;;26.30;99.90;;;;;;5013800;28;19916;-67
2022/12/27 04:03:27;;;;;;;;;;;26.30;99.90;;;;;;5013860;28;19910;-78
2022/12/27 04:05:54;;;;;;;;;;;26.40;99.90;;;;;;5011729;28;19921;-83
2022/12/27 04:35:48;;;;;;;;;;;26.50;99.90;;;;;;5012893;28;19917;-68
2022/12/27 04:38:15;;;;;;;;;;;26.50;99.90;;;;;;5013373;28;20284;-84
2022/12/27 04:54:56;;;;;;;;;;;26.30;99.90;;;;;;5013180;28;20280;-75
2022/12/27 04:57:22;;;;;;;;;;;26.40;99.90;;;;;;5013021;28;19913;-79
2022/12/27 05:02:33;;;;;;;;;;;26.30;99.90;;;;;;5013178;28;20344;-71
2022/12/27 05:05:00;;;;;;;;;;;26.20;99.90;;;;;;5012904;28;19910;-68
2022/12/27 05:15:41;;;;;;;;;;;26.00;99.90;;;;;;5017465;28;19928;-78
2022/12/27 05:18:08;;;;;;;;;;;25.90;99.90;;;;;;5016914;28;19964;-79
2022/12/27 05:20:35;;;;;;;;;;;25.80;99.90;;;;;;5016691;28;19909;-72
2022/12/27 05:25:53;;;;;;;;;;;25.70;99.90;;;;;;4993493;28;20245;-78
2022/12/27 05:28:20;;;;;;;;;;;25.70;99.90;;;;;;5016557;28;19910;-72
2022/12/27 05:30:47;;;;;;;;;;;25.60;99.90;;;;;;5016483;28;19909;-70
2022/12/27 05:33:13;;;;;;;;;;;25.50;99.90;;;;;;5016544;28;19916;-73
2022/12/27 05:35:40;;;;;;;;;;;25.50;99.90;;;;;;5016082;28;19910;-81
2022/12/27 05:38:07;;;;;;;;;;;25.50;99.90;;;;;;5016521;28;20060;-74
2022/12/27 05:40:34;;;;;;;;;;;25.50;99.90;;;;;;5016330;28;19909;-72
2022/12/27 05:43:02;;;;;;;;;;;25.50;99.90;;;;;;5016216;28;19910;-76
2022/12/27 05:45:29;;;;;;;;;;;25.40;99.90;;;;;;5016028;28;19914;-71
2022/12/27 05:47:57;;;;;;;;;;;25.40;99.90;;;;;;5016225;28;19967;-75
2022/12/27 05:50:24;;;;;;;;;;;25.40;99.90;;;;;;5015700;28;20402;-82
2022/12/27 05:52:51;;;;;;;;;;;25.30;99.90;;;;;;4995547;28;20287;-78
2022/12/27 05:55:17;;;;;;;;;;;25.20;99.90;;;;;;5014015;28;19957;-80
2022/12/27 05:57:44;;;;;;;;;;;25.20;99.90;;;;;;5014053;28;19913;-73
2022/12/27 06:00:11;;;;;;;;;;;25.20;99.90;;;;;;5013717;28;19917;-75
2022/12/27 06:02:38;;;;;;;;;;;25.20;99.90;;;;;;5014234;28;19910;-81
2022/12/27 06:05:05;;;;;;;;;;;25.20;99.90;;;;;;5013235;28;20360;-76
2022/12/27 06:07:31;;;;;;;;;;;25.20;99.90;;;;;;4996403;28;19921;-77
2022/12/27 06:09:58;;;;;;;;;;;25.30;99.90;;;;;;5014327;28;19910;-81
2022/12/27 06:12:25;;;;;;;;;;;25.30;99.90;;;;;;5014010;28;20318;-79
2022/12/27 06:14:51;;;;;;;;;;;25.20;99.90;;;;;;5013975;28;19937;-82
2022/12/27 06:17:18;;;;;;;;;;;25.10;99.90;;;;;;5013975;28;19956;-80
2022/12/27 06:19:45;;;;;;;;;;;25.00;99.90;;;;;;5014275;28;19917;-78
2022/12/27 06:22:11;;;;;;;;;;;25.00;99.90;;;;;;5014197;28;19910;-79
2022/12/27 06:24:38;;;;;;;;;;;24.90;99.90;;;;;;5012928;28;19909;-80
2022/12/27 06:27:05;;;;;;;;;;;24.80;99.90;;;;;;5015272;28;19918;-81
2022/12/27 06:29:33;;;;;;;;;;;24.80;99.90;;;;;;5021361;28;20036;-73
2022/12/27 06:31:59;;;;;;;;;;;24.70;99.90;;;;;;5018706;28;19920;-78
2022/12/27 06:34:26;;;;;;;;;;;24.60;99.90;;;;;;5017451;28;19913;-71
2022/12/27 06:36:53;;;;;;;;;;;24.50;99.90;;;;;;5018743;28;19953;-80
2022/12/27 06:39:19;;;;;;;;;;;24.50;99.90;;;;;;5014037;28;19914;-70
2022/12/27 06:41:46;;;;;;;;;;;24.50;99.90;;;;;;5013400;28;19960;-74
2022/12/27 06:44:13;;;;;;;;;;;24.50;99.90;;;;;;5012924;28;19913;-75
2022/12/27 06:46:39;;;;;;;;;;;24.50;99.90;;;;;;5013342;28;19925;-74
2022/12/27 06:49:06;;;;;;;;;;;24.40;99.90;;;;;;5012922;28;19909;-77
2022/12/27 06:51:33;;;;;;;;;;;24.50;99.90;;;;;;5013006;28;20415;-72
2022/12/27 06:53:59;;;;;;;;;;;24.40;99.90;;;;;;5013976;28;19925;-79
2022/12/27 06:56:26;;;;;;;;;;;24.30;99.90;;;;;;5012916;28;20309;-83
2022/12/27 06:58:53;;;;;;;;;;;24.30;99.90;;;;;;5013265;28;19909;-83
2022/12/27 07:01:21;;;;;;;;;;;24.30;99.90;;;;;;4995225;28;19914;-72
2022/12/27 07:03:52;;;;;;;;;;;24.30;99.90;;;;;;5012819;28;20268;-74
2022/12/27 07:06:19;;;;;;;;;;;24.30;99.90;;;;;;5013276;28;19917;-82
2022/12/27 07:08:46;;;;;;;;;;;24.20;99.90;;;;;;5012927;28;19989;-76
2022/12/27 07:11:13;;;;;;;;;;;24.20;99.90;;;;;;5012550;28;19913;-80
2022/12/27 07:13:41;;;;;;;;;;;24.20;99.90;;;;;;5013882;28;19913;-84
2022/12/27 07:16:09;;;;;;;;;;;24.20;99.90;;;;;;5013640;28;20483;-84
2022/12/27 07:18:36;;;;;;;;;;;24.10;99.90;;;;;;5013310;28;19971;-77
2022/12/27 07:21:09;;;;;;;;;;;24.10;99.90;;;;;;4995905;28;20340;-80
2022/12/27 07:23:36;;;;;;;;;;;24.10;99.90;;;;;;5012674;28;19920;-83
2022/12/27 07:26:09;;;;;;;;;;;24.10;99.90;;;;;;5013698;28;19921;-83
2022/12/27 07:28:36;;;;;;;;;;;24.00;99.90;;;;;;5013920;28;19914;-81
2022/12/27 07:31:25;;;;;;;;;;;24.00;99.90;;;;;;5013406;28;19910;-80
2022/12/27 07:33:52;;;;;;;;;;;24.00;99.90;;;;;;5013397;28;19917;-82
2022/12/27 07:36:21;;;;;;;;;;;23.90;99.90;;;;;;5011996;28;19936;-88
2022/12/27 07:38:47;;;;;;;;;;;23.90;99.90;;;;;;5014523;28;19916;-80
2022/12/27 07:41:14;;;;;;;;;;;23.90;99.90;;;;;;5013142;28;19913;-79
2022/12/27 07:43:42;;;;;;;;;;;23.90;99.90;;;;;;5013815;28;20387;-79
2022/12/27 07:46:11;;;;;;;;;;;23.90;99.90;;;;;;5013862;28;19926;-78
2022/12/27 07:48:38;;;;;;;;;;;23.90;99.90;;;;;;5012978;28;19941;-73
2022/12/27 07:51:05;;;;;;;;;;;23.90;99.90;;;;;;5013636;28;19909;-69
2022/12/27 07:53:32;;;;;;;;;;;23.80;99.90;;;;;;5011763;28;19949;-79
2022/12/27 07:55:58;;;;;;;;;;;23.70;99.90;;;;;;5012152;28;19916;-75
2022/12/27 07:58:25;;;;;;;;;;;23.70;99.90;;;;;;5011976;28;19916;-70
2022/12/27 08:00:52;;;;;;;;;;;23.70;99.90;;;;;;5012281;28;20382;-82
2022/12/27 08:03:19;;;;;;;;;;;23.70;99.90;;;;;;5011416;28;19909;-69
2022/12/27 08:05:51;;;;;;;;;;;23.60;99.90;;;;;;5011965;28;20282;-70
2022/12/27 08:08:19;;;;;;;;;;;23.60;99.90;;;;;;5011841;28;19959;-64
2022/12/27 08:10:46;;;;;;;;;;;23.60;99.90;;;;;;5012850;28;20009;-77
2022/12/27 08:13:12;;;;;;;;;;;23.60;99.90;;;;;;5013738;28;19914;-65
2022/12/27 08:15:40;;;;;;;;;;;23.60;99.90;;;;;;5013429;28;19939;-79
2022/12/27 08:18:07;;;;;;;;;;;23.50;99.90;;;;;;5013649;28;20418;-84
2022/12/27 08:20:34;;;;;;;;;;;23.50;99.90;;;;;;5013707;28;20008;-86
2022/12/27 08:23:00;;;;;;;;;;;23.50;99.90;;;;;;5013289;28;19910;-80
2022/12/27 08:25:28;;;;;;;;;;;23.40;99.90;;;;;;5013296;28;20008;-72
2022/12/27 08:28:05;;;;;;;;;;;23.40;99.90;;;;;;5014420;28;20329;-82
2022/12/27 08:30:32;;;;;;;;;;;23.40;99.90;;;;;;5013491;28;19917;-83
2022/12/27 08:33:00;;;;;;;;;;;23.30;99.90;;;;;;5014058;28;19944;-81
2022/12/27 08:35:27;;;;;;;;;;;23.20;99.90;;;;;;5013144;28;19910;-84
2022/12/27 08:37:53;;;;;;;;;;;23.20;99.90;;;;;;5014247;28;19913;-86
2022/12/27 08:40:20;;;;;;;;;;;23.10;99.90;;;;;;5014356;28;19917;-79
2022/12/27 08:42:47;;;;;;;;;;;23.20;99.90;;;;;;5013824;28;19924;-85
2022/12/27 08:45:14;;;;;;;;;;;23.10;99.90;;;;;;4996540;28;19963;-78
2022/12/27 08:47:40;;;;;;;;;;;23.10;99.90;;;;;;5015343;28;19914;-72
2022/12/27 08:50:07;;;;;;;;;;;23.00;99.90;;;;;;5017814;28;20033;-82
2022/12/27 08:52:34;;;;;;;;;;;23.00;99.90;;;;;;5017824;28;19964;-80
2022/12/27 08:55:01;;;;;;;;;;;22.90;99.90;;;;;;5017437;28;20281;-74
2022/12/27 08:57:28;;;;;;;;;;;22.90;99.90;;;;;;5017743;28;19910;-68
2022/12/27 08:59:54;;;;;;;;;;;22.90;99.90;;;;;;5017535;28;20355;-64
2022/12/27 09:02:21;;;;;;;;;;;22.90;99.90;;;;;;5017336;28;19917;-65
2022/12/27 09:04:48;;;;;;;;;;;22.80;99.90;;;;;;5017076;28;20287;-65
2022/12/27 09:07:14;;;;;;;;;;;22.80;99.90;;;;;;5017197;28;20039;-69
2022/12/27 09:09:41;;;;;;;;;;;22.70;99.90;;;;;;5017302;28;20000;-67
2022/12/27 09:12:08;;;;;;;;;;;22.70;99.90;;;;;;5017246;28;19917;-72
2022/12/27 09:14:34;;;;;;;;;;;22.70;99.90;;;;;;5017001;28;19916;-65
2022/12/27 09:17:01;;;;;;;;;;;22.70;99.90;;;;;;5017201;28;19952;-86
2022/12/27 09:19:28;;;;;;;;;;;22.70;99.90;;;;;;5016859;28;20315;-79
2022/12/27 09:21:54;;;;;;;;;;;22.70;99.90;;;;;;5014330;28;19914;-65
2022/12/27 09:24:21;;;;;;;;;;;22.70;99.90;;;;;;5015847;28;20272;-81
2022/12/27 09:26:48;;;;;;;;;;;22.60;99.90;;;;;;5016305;28;19925;-66
2022/12/27 09:29:14;;;;;;;;;;;22.60;99.90;;;;;;5015578;28;19910;-78
2022/12/27 09:31:41;;;;;;;;;;;22.60;99.90;;;;;;5015181;28;20245;-68
2022/12/27 09:34:09;;;;;;;;;;;22.60;99.90;;;;;;5014550;28;19909;-78
2022/12/27 09:36:37;;;;;;;;;;;22.50;99.90;;;;;;5014861;28;19910;-74
2022/12/27 09:39:03;;;;;;;;;;;22.50;99.90;;;;;;5015241;28;20335;-70
2022/12/27 09:41:33;;;;;;;;;;;22.50;99.90;;;;;;5014566;28;19913;-71
2022/12/27 09:44:02;;;;;;;;;;;22.40;99.90;;;;;;5015076;28;20388;-71
2022/12/27 09:46:36;;;;;;;;;;;22.40;99.90;;;;;;5014791;28;19921;-69
2022/12/27 09:49:03;;;;;;;;;;;22.40;99.90;;;;;;5015422;28;19910;-84
2022/12/27 09:51:35;;;;;;;;;;;22.40;99.90;;;;;;5014611;28;19913;-82
2022/12/27 09:54:02;;;;;;;;;;;22.40;99.90;;;;;;5015068;28;20008;-73
2022/12/27 09:56:30;;;;;;;;;;;22.30;99.90;;;;;;5014648;28;19910;-71
2022/12/27 09:59:13;;;;;;;;;;;22.30;99.90;;;;;;5014043;28;19910;-77
2022/12/27 10:01:39;;;;;;;;;;;22.30;99.90;;;;;;5014249;28;19914;-86
2022/12/27 10:04:11;;;;;;;;;;;22.30;99.90;;;;;;5014366;28;19920;-85
2022/12/27 10:06:49;;;;;;;;;;;22.30;99.90;;;;;;5014838;28;20296;-84
2022/12/27 10:09:34;;;;;;;;;;;22.20;99.90;;;;;;5014420;28;19910;-68
2022/12/27 10:12:08;;;;;;;;;;;22.20;99.90;;;;;;5014138;28;19916;-81
2022/12/27 10:14:57;;;;;;;;;;;22.20;99.90;;;;;;5014058;28;19913;-85
2022/12/27 10:17:32;;;;;;;;;;;22.20;99.90;;;;;;5014014;28;19950;-86
2022/12/27 10:20:19;;;;;;;;;;;22.20;99.90;;;;;;5014288;28;19945;-85
2022/12/27 10:22:48;;;;;;;;;;;22.10;99.90;;;;;;5000082;28;19910;-79
2022/12/27 10:25:16;;;;;;;;;;;22.10;99.90;;;;;;5013872;28;19909;-88
2022/12/27 10:27:43;;;;;;;;;;;22.10;99.90;;;;;;5013998;28;20290;-87
2022/12/27 10:30:18;;;;;;;;;;;22.10;99.90;;;;;;5014214;28;19913;-82
2022/12/27 10:32:45;;;;;;;;;;;22.10;99.90;;;;;;5013712;28;19909;-81
2022/12/27 10:35:14;;;;;;;;;;;22.10;99.90;;;;;;5014096;28;19909;-82
2022/12/27 10:37:40;;;;;;;;;;;22.10;99.90;;;;;;5014625;28;20015;-86
2022/12/27 10:40:13;;;;;;;;;;;22.00;99.90;;;;;;5013641;28;19962;-84
2022/12/27 10:42:59;;;;;;;;;;;22.00;99.90;;;;;;5014024;28;20411;-82
2022/12/27 10:45:28;;;;;;;;;;;22.00;99.90;;;;;;5013644;28;20012;-88
2022/12/27 10:47:56;;;;;;;;;;;22.00;99.90;;;;;;5013824;28;19921;-84
2022/12/27 10:50:25;;;;;;;;;;;22.00;99.90;;;;;;5014153;28;19932;-86
2022/12/27 10:52:52;;;;;;;;;;;22.00;99.90;;;;;;5013647;28;20284;-86
2022/12/27 10:55:36;;;;;;;;;;;22.00;99.90;;;;;;5013837;28;19931;-88
2022/12/27 10:58:20;;;;;;;;;;;21.90;99.90;;;;;;5014028;28;19913;-85
2022/12/27 11:00:57;;;;;;;;;;;21.90;99.90;;;;;;5013717;28;20442;-78
2022/12/27 11:03:25;;;;;;;;;;;21.90;99.90;;;;;;5015512;28;19914;-85
2022/12/27 11:06:03;;;;;;;;;;;21.90;99.90;;;;;;4998274;28;19917;-84
2022/12/27 11:08:30;;;;;;;;;;;21.80;99.90;;;;;;5015617;28;19913;-83
2022/12/27 11:11:22;;;;;;;;;;;21.80;99.90;;;;;;5015388;28;19996;-87
2022/12/27 11:13:50;;;;;;;;;;;21.80;99.90;;;;;;5011778;28;19909;-81
2022/12/27 11:16:27;;;;;;;;;;;21.90;99.90;;;;;;5015667;28;19910;-80
2022/12/27 11:18:55;;;;;;;;;;;21.80;99.90;;;;;;5015167;28;19917;-83
2022/12/27 11:21:21;;;;;;;;;;;21.90;99.90;;;;;;4997897;28;20360;-85
2022/12/27 11:23:53;;;;;;;;;;;21.90;99.90;;;;;;5015312;28;19917;-80
2022/12/27 11:26:28;;;;;;;;;;;21.90;99.90;;;;;;5015062;28;20324;-81
2022/12/27 11:28:56;;;;;;;;;;;21.90;99.90;;;;;;5015045;28;19910;-78
2022/12/27 11:31:36;;;;;;;;;;;21.90;99.90;;;;;;4997178;28;19909;-75
2022/12/27 11:34:12;;;;;;;;;;;21.90;99.90;;;;;;5014774;28;20364;-83
2022/12/27 11:36:40;;;;;;;;;;;21.80;99.90;;;;;;5015051;28;19917;-85
2022/12/27 11:39:08;;;;;;;;;;;21.80;99.90;;;;;;5015276;28;19909;-85
2022/12/27 11:41:34;;;;;;;;;;;21.80;99.90;;;;;;5014622;28;19909;-77
2022/12/27 11:44:19;;;;;;;;;;;21.80;99.90;;;;;;5014667;28;19996;-76
2022/12/27 11:46:46;;;;;;;;;;;21.90;99.90;;;;;;5014543;28;19917;-85
2022/12/27 11:49:21;;;;;;;;;;;21.90;99.90;;;;;;5014491;28;19910;-80
2022/12/27 11:52:01;;;;;;;;;;;21.90;99.90;;;;;;5014684;28;20007;-78
2022/12/27 11:54:31;;;;;;;;;;;21.90;99.90;;;;;;5014279;28;19921;-75
2022/12/27 11:57:19;;;;;;;;;;;21.90;99.90;;;;;;5014680;28;19909;-77
2022/12/27 11:59:54;;;;;;;;;;;21.90;99.90;;;;;;5014296;28;19910;-84
2022/12/27 12:02:24;;;;;;;;;;;21.90;99.90;;;;;;5014307;28;19910;-77
2022/12/27 12:04:56;;;;;;;;;;;22.00;99.90;;;;;;5014466;28;20008;-80
2022/12/27 12:07:38;;;;;;;;;;;21.90;99.90;;;;;;5013854;28;20275;-74
2022/12/27 12:10:11;;;;;;;;;;;21.90;99.90;;;;;;5014406;28;19909;-78
2022/12/27 12:12:46;;;;;;;;;;;22.00;99.90;;;;;;5014202;28;19913;-74
2022/12/27 12:15:13;;;;;;;;;;;22.00;99.90;;;;;;5014323;28;19996;-86
2022/12/27 12:17:44;;;;;;;;;;;22.00;99.90;;;;;;5014105;28;19913;-79
2022/12/27 12:20:11;;;;;;;;;;;22.10;99.90;;;;;;5014041;28;19948;-79
2022/12/27 12:22:47;;;;;;;;;;;22.20;99.90;;;;;;5014158;28;19941;-78
2022/12/27 12:25:19;;;;;;;;;;;22.20;99.90;;;;;;5014104;28;19910;-73
2022/12/27 12:28:04;;;;;;;;;;;22.20;99.90;;;;;;5014182;28;19913;-83
2022/12/27 12:30:31;;;;;;;;;;;22.10;99.90;;;;;;5014137;28;19917;-87
2022/12/27 12:33:10;;;;;;;;;;;22.10;99.90;;;;;;5014124;28;19964;-82
2022/12/27 12:35:52;;;;;;;;;;;22.10;99.90;;;;;;5013902;28;19914;-84
2022/12/27 12:38:36;;;;;;;;;;;22.00;99.90;;;;;;5013956;28;19909;-74
2022/12/27 12:41:06;;;;;;;;;;;22.00;99.90;;;;;;5013973;28;20016;-85
2022/12/27 12:43:33;;;;;;;;;;;22.00;99.90;;;;;;5013754;28;19916;-81
2022/12/27 12:46:02;;;;;;;;;;;22.00;99.90;;;;;;5013949;28;20332;-80
2022/12/27 12:48:29;;;;;;;;;;;22.00;99.90;;;;;;5013719;28;19917;-88
2022/12/27 12:50:58;;;;;;;;;;;21.90;99.90;;;;;;5014011;28;19964;-74
2022/12/27 12:53:43;;;;;;;;;;;21.90;99.90;;;;;;5013656;28;19996;-74
2022/12/27 12:56:25;;;;;;;;;;;21.90;99.90;;;;;;5013950;28;19992;-77
2022/12/27 12:59:04;;;;;;;;;;;21.90;99.90;;;;;;5013840;28;19968;-80
2022/12/27 13:01:33;;;;;;;;;;;21.90;99.90;;;;;;5013837;28;19910;-74
2022/12/27 13:04:05;;;;;;;;;;;21.90;99.90;;;;;;5013735;28;19937;-78
2022/12/27 13:06:34;;;;;;;;;;;21.90;99.90;;;;;;5013878;28;19961;-66
2022/12/27 13:09:08;;;;;;;;;;;21.90;99.90;;;;;;5013610;28;20291;-69
2022/12/27 13:11:46;;;;;;;;;;;21.90;99.90;;;;;;5013189;28;20308;-74
2022/12/27 13:14:19;;;;;;;;;;;21.90;99.90;;;;;;5012834;28;19931;-80
2022/12/27 13:17:06;;;;;;;;;;;21.90;99.90;;;;;;5005941;28;19921;-78
2022/12/27 13:19:38;;;;;;;;;;;21.80;99.90;;;;;;5005648;28;19928;-77
2022/12/27 13:22:15;;;;;;;;;;;21.90;99.90;;;;;;5006061;28;19913;-85
2022/12/27 13:24:59;;;;;;;;;;;21.90;99.90;;;;;;5005525;28;19967;-79
2022/12/27 13:27:29;;;;;;;;;;;21.90;99.90;;;;;;5004206;28;19944;-85
2022/12/27 13:29:56;;;;;;;;;;;21.90;99.90;;;;;;5005238;28;20012;-85
2022/12/27 13:32:27;;;;;;;;;;;21.90;99.90;;;;;;5007242;28;20303;-77
2022/12/27 13:34:59;;;;;;;;;;;21.90;99.90;;;;;;5010383;28;19918;-77
2022/12/27 13:37:26;;;;;;;;;;;21.90;99.90;;;;;;5010892;28;19917;-79
2022/12/27 13:40:01;;;;;;;;;;;21.80;99.90;;;;;;5012745;28;19913;-87
2022/12/27 13:42:31;;;;;;;;;;;21.80;99.90;;;;;;5014654;28;19920;-78
2022/12/27 13:45:16;;;;;;;;;;;21.80;99.90;;;;;;5019687;28;19944;-82
2022/12/27 13:48:03;;;;;;;;;;;21.80;99.90;;;;;;5023466;28;20008;-77
2022/12/27 13:50:48;;;;;;;;;;;21.70;99.90;;;;;;5009384;28;19918;-84
2022/12/27 13:53:24;;;;;;;;;;;21.70;99.90;;;;;;5021693;28;20537;-77
2022/12/27 13:55:54;;;;;;;;;;;21.70;99.90;;;;;;5013336;28;19968;-80
2022/12/27 13:58:32;;;;;;;;;;;21.70;99.90;;;;;;5008931;28;19918;-75
2022/12/27 14:01:05;;;;;;;;;;;21.80;99.90;;;;;;5008138;28;19989;-85
2022/12/27 14:03:42;;;;;;;;;;;21.70;99.90;;;;;;5007271;28;19925;-72
2022/12/27 14:06:12;;;;;;;;;;;21.80;99.90;;;;;;5007308;28;19921;-80
2022/12/27 14:09:07;;;;;;;;;;;21.80;99.90;;;;;;5007320;28;20347;-73
2022/12/27 14:11:37;;;;;;;;;;;21.80;99.90;;;;;;4990286;28;19936;-71
2022/12/27 14:14:04;;;;;;;;;;;21.80;99.90;;;;;;5007845;28;19917;-76
2022/12/27 14:16:51;;;;;;;;;;;21.70;99.90;;;;;;5008044;28;19924;-79
2022/12/27 14:19:53;;;;;;;;;;;21.80;99.90;;;;;;4967247;28;20004;-74
2022/12/27 14:22:26;;;;;;;;;;;21.80;99.90;;;;;;4927192;29;20063;-76
2022/12/27 14:25:05;;;;;;;;;;;21.80;99.90;;;;;;4997612;28;20286;-69
2022/12/27 14:27:50;;;;;;;;;;;21.80;99.90;;;;;;5007610;28;19936;-65
2022/12/27 14:30:38;;;;;;;;;;;21.70;99.90;;;;;;5007858;28;20368;-77
2022/12/27 14:33:22;;;;;;;;;;;21.70;99.90;;;;;;5007799;28;19913;-71
2022/12/27 14:36:07;;;;;;;;;;;21.80;99.90;;;;;;5007598;28;19913;-90
2022/12/27 14:38:34;;;;;;;;;;;21.80;99.90;;;;;;5011307;28;19910;-76
2022/12/27 14:41:13;;;;;;;;;;;21.80;99.90;;;;;;5010375;28;19913;-69
2022/12/27 14:43:40;;;;;;;;;;;21.80;99.90;;;;;;5006480;28;19925;-85
2022/12/27 14:46:07;;;;;;;;;;;21.80;99.90;;;;;;5005668;28;20374;-79
2022/12/27 14:48:33;;;;;;;;;;;21.90;99.90;;;;;;5006386;28;19913;-76
2022/12/27 14:51:03;;;;;;;;;;;21.90;99.90;;;;;;5007986;28;20062;-73
2022/12/27 14:53:33;;;;;;;;;;;21.90;99.90;;;;;;5006856;28;19926;-79
2022/12/27 14:56:06;;;;;;;;;;;21.90;99.90;;;;;;5007525;28;20324;-75
2022/12/27 14:58:36;;;;;;;;;;;21.90;99.90;;;;;;5007147;28;20303;-84
2022/12/27 15:01:02;;;;;;;;;;;21.90;99.90;;;;;;5006231;28;19917;-76
2022/12/27 15:03:49;;;;;;;;;;;21.90;99.90;;;;;;5006005;28;19971;-72
2022/12/27 15:06:34;;;;;;;;;;;22.00;99.90;;;;;;4992886;28;20028;-75
2022/12/27 15:09:01;;;;;;;;;;;21.90;99.90;;;;;;5006353;28;19918;-73
2022/12/27 15:11:39;;;;;;;;;;;21.90;99.90;;;;;;5005835;28;20301;-70
2022/12/27 15:14:24;;;;;;;;;;;21.90;99.90;;;;;;5005888;28;19918;-73
2022/12/27 15:17:01;;;;;;;;;;;21.80;99.90;;;;;;5006788;28;19922;-71
2022/12/27 15:19:38;;;;;;;;;;;21.90;99.90;;;;;;5006374;28;19918;-71
2022/12/27 15:22:20;;;;;;;;;;;21.80;99.90;;;;;;5007166;28;19953;-82
2022/12/27 15:25:06;;;;;;;;;;;21.80;99.90;;;;;;4997741;28;20033;-71
2022/12/27 15:27:54;;;;;;;;;;;21.80;99.90;;;;;;5005676;28;20439;-88
2022/12/27 15:30:36;;;;;;;;;;;21.80;99.90;;;;;;5001645;28;19917;-78
2022/12/27 15:33:19;;;;;;;;;;;21.80;99.90;;;;;;5007421;28;20308;-76
2022/12/27 15:35:49;;;;;;;;;;;21.80;99.90;;;;;;4998458;28;19917;-80
2022/12/27 15:38:33;;;;;;;;;;;21.80;99.90;;;;;;5006865;28;19921;-75
2022/12/27 15:41:06;;;;;;;;;;;21.80;99.90;;;;;;5009842;28;19924;-67
2022/12/27 15:43:33;;;;;;;;;;;21.70;99.90;;;;;;5013516;28;20279;-65
2022/12/27 15:46:28;;;;;;;;;;;21.70;99.90;;;;;;5013829;28;19928;-64
2022/12/27 15:49:05;;;;;;;;;;;21.70;99.90;;;;;;4942118;28;19966;-64
2022/12/27 15:51:32;;;;;;;;;;;21.70;99.90;;;;;;4994888;28;19965;-65
2022/12/27 15:53:59;;;;;;;;;;;21.70;99.90;;;;;;4994325;28;20391;-65
2022/12/27 15:56:40;;;;;;;;;;;21.60;99.90;;;;;;4994433;28;19949;-72
2022/12/27 15:59:24;;;;;;;;;;;21.60;99.90;;;;;;4994590;28;19932;-69
2022/12/27 16:02:29;;;;;;;;;;;21.60;99.90;;;;;;4994430;28;19910;-65
2022/12/27 16:05:16;;;;;;;;;;;21.70;99.90;;;;;;4934460;29;20396;-64
2022/12/27 16:07:52;;;;;;;;;;;21.60;99.90;;;;;;4934179;29;19926;-65
2022/12/27 16:10:25;;;;;;;;;;;21.60;99.90;;;;;;4975379;28;20004;-64
2022/12/27 16:12:53;;;;;;;;;;;21.50;99.90;;;;;;4994289;28;19914;-65
2022/12/27 16:15:41;;;;;;;;;;;21.40;99.90;;;;;;4994109;28;19914;-65
2022/12/27 16:18:23;;;;;;;;;;;21.40;99.90;;;;;;4994286;28;19932;-65
2022/12/27 16:21:04;;;;;;;;;;;21.50;99.90;;;;;;4994262;28;19913;-65